Time;durP1;ratioP1;P1;durP2;ratioP2;P2;SDS_P1;SDS_P2;PMS_P1;PMS_P2;Temp;Humidity;BMP_temperature;BMP_pressure;BME280_temperature;BME280_humidity;BME280_pressure;Samples;Min_cycle;Max_cycle;Signal;HPM_P1;HPM_P2
2022/10/26 00:01:27;;;;;;;16.00;2.38;;;;;;;12.50;100.00;100909.44;4934262;29;20063;-65
2022/10/26 00:03:55;;;;;;;14.10;2.20;;;;;;;12.62;100.00;100931.25;4934243;29;20087;-65
2022/10/26 00:06:25;;;;;;;18.17;1.80;;;;;;;12.59;100.00;100928.97;4916791;29;20039;-65
2022/10/26 00:08:51;;;;;;;13.93;1.80;;;;;;;12.47;100.00;100926.06;4934117;29;20056;-64
2022/10/26 00:11:18;;;;;;;11.40;2.15;;;;;;;12.54;100.00;100932.28;4934045;29;20517;-64
2022/10/26 00:13:45;;;;;;;9.30;1.33;;;;;;;12.54;100.00;100932.28;4916840;29;20376;-66
2022/10/26 00:16:22;;;;;;;11.48;2.17;;;;;;;12.51;100.00;100932.69;4933606;29;20505;-64
2022/10/26 00:18:49;;;;;;;10.45;1.60;;;;;;;12.46;100.00;100932.50;4918558;29;20115;-64
2022/10/26 00:21:15;;;;;;;8.45;1.67;;;;;;;12.43;100.00;100941.03;4933100;29;20036;-65
2022/10/26 00:23:41;;;;;;;9.80;1.50;;;;;;;12.46;100.00;100940.59;4933784;29;20036;-65
2022/10/26 00:26:07;;;;;;;10.68;1.10;;;;;;;12.39;100.00;100923.59;4916830;29;20398;-65
2022/10/26 00:28:33;;;;;;;10.60;1.60;;;;;;;12.44;100.00;100942.66;4933676;29;20098;-65
2022/10/26 00:31:07;;;;;;;7.65;1.33;;;;;;;12.42;100.00;100937.50;4916487;29;20533;-65
2022/10/26 00:33:33;;;;;;;;;;;;;;;12.42;100.00;100942.06;4916929;29;20039;-65
2022/10/26 00:35:59;;;;;;;11.27;1.38;;;;;;;12.39;100.00;100942.47;4916921;29;20358;-65
2022/10/26 00:38:24;;;;;;;11.90;1.30;;;;;;;12.40;100.00;100947.66;4916325;29;20487;-65
2022/10/26 00:40:50;;;;;;;12.63;1.40;;;;;;;12.42;100.00;100942.88;4933620;29;20067;-65
2022/10/26 00:43:21;;;;;;;9.45;1.50;;;;;;;12.43;100.00;100951.81;4933916;29;20034;-65
2022/10/26 00:45:50;;;;;;;10.30;1.73;;;;;;;12.43;100.00;100951.81;4916499;29;20040;-65
2022/10/26 00:48:25;;;;;;;9.85;1.35;;;;;;;12.27;100.00;100936.03;4916599;29;20028;-64
2022/10/26 00:50:52;;;;;;;11.65;1.40;;;;;;;12.36;100.00;100959.91;4918501;29;20028;-65
2022/10/26 00:53:18;;;;;;;11.93;1.55;;;;;;;12.35;100.00;100960.09;4933544;29;20107;-65
2022/10/26 00:55:47;;;;;;;9.30;1.58;;;;;;;12.34;100.00;100963.84;4916529;29;20039;-65
2022/10/26 00:58:13;;;;;;;7.55;1.20;;;;;;;12.34;100.00;100966.53;4933802;29;20034;-65
2022/10/26 01:00:40;;;;;;;9.70;1.70;;;;;;;12.37;100.00;100950.75;4916155;29;20032;-65
2022/10/26 01:03:08;;;;;;;9.27;1.20;;;;;;;12.38;100.00;100967.78;4916520;29;20039;-64
2022/10/26 01:05:36;;;;;;;6.38;1.35;;;;;;;12.23;100.00;100938.31;4916365;29;20040;-65
2022/10/26 01:08:25;;;;;;;9.20;1.60;;;;;;;12.39;100.00;100958.66;4933416;29;20036;-65
2022/10/26 01:10:51;;;;;;;8.73;1.30;;;;;;;12.28;100.00;100960.09;4874609;29;20454;-65
2022/10/26 01:13:17;;;;;;;6.32;1.30;;;;;;;12.32;100.00;100965.94;4859120;29;20041;-64
2022/10/26 01:16:24;;;;;;;6.30;1.02;;;;;;;12.35;100.00;100963.66;4874701;29;20049;-65
2022/10/26 01:19:03;;;;;;;7.82;1.23;;;;;;;12.39;100.00;100973.00;4831985;29;20045;-65
2022/10/26 01:22:26;;;;;;;10.48;1.63;;;;;;;12.42;100.00;100972.56;4874524;29;20424;-65
2022/10/26 01:25:26;;;;;;;7.78;1.25;;;;;;;12.44;100.00;100977.75;4818488;29;20453;-65
2022/10/26 01:27:53;;;;;;;11.77;1.55;;;;;;;12.42;100.00;100975.28;4830775;29;20041;-65
2022/10/26 01:30:24;;;;;;;9.73;1.38;;;;;;;12.42;100.00;100977.16;4854703;29;20085;-65
2022/10/26 01:33:08;;;;;;;9.18;1.80;;;;;;;12.39;100.00;100980.25;4865603;29;20033;-65
2022/10/26 01:35:36;;;;;;;10.23;1.23;;;;;;;12.37;100.00;100985.03;4896589;29;20469;-65
2022/10/26 01:38:22;;;;;;;13.60;1.92;;;;;;;12.35;100.00;100982.53;4880987;29;20036;-65
2022/10/26 01:40:58;;;;;;;9.55;1.30;;;;;;;12.30;100.00;100976.09;4886126;29;20603;-65
2022/10/26 01:43:27;;;;;;;7.45;1.55;;;;;;;12.30;100.00;100984.19;4938420;29;20524;-65
2022/10/26 01:45:54;;;;;;;12.65;1.50;;;;;;;12.19;100.00;100978.38;4955695;29;20027;-65
2022/10/26 01:48:23;;;;;;;8.63;1.73;;;;;;;12.16;100.00;100967.97;4955664;29;20486;-65
2022/10/26 01:50:52;;;;;;;15.00;1.63;;;;;;;12.10;100.00;100963.41;4940024;29;20042;-65
2022/10/26 01:53:19;;;;;;;10.63;1.70;;;;;;;12.10;100.00;100971.50;4955445;29;20102;-65
2022/10/26 01:55:52;;;;;;;10.20;1.63;;;;;;;12.10;100.00;100966.09;4938317;29;20628;-65
2022/10/26 01:58:46;;;;;;;10.35;1.48;;;;;;;12.20;100.00;100981.88;4938409;29;20046;-65
2022/10/26 02:01:41;;;;;;;10.45;1.55;;;;;;;12.19;100.00;100989.16;4942714;29;20043;-65
2022/10/26 02:04:25;;;;;;;14.05;1.40;;;;;;;12.19;100.00;100996.44;4938166;29;20031;-65
2022/10/26 02:06:59;;;;;;;13.05;1.38;;;;;;;12.24;100.00;100991.22;4922762;29;20090;-65
2022/10/26 02:09:30;;;;;;;9.82;1.23;;;;;;;12.31;100.00;100991.25;4955315;28;20039;-65
2022/10/26 02:11:57;;;;;;;8.85;1.33;;;;;;;12.29;100.00;100977.13;4937882;29;20131;-65
2022/10/26 02:14:45;;;;;;;7.70;1.33;;;;;;;12.49;100.00;100987.94;4937725;29;20043;-65
2022/10/26 02:17:24;;;;;;;12.05;2.08;;;;;;;12.44;100.00;100989.38;4941994;29;20035;-65
2022/10/26 02:20:04;;;;;;;13.05;2.15;;;;;;;12.34;100.00;100971.94;4955055;29;20042;-66
2022/10/26 02:22:37;;;;;;;13.45;1.55;;;;;;;12.49;100.00;100994.16;4954765;29;20473;-65
2022/10/26 02:25:10;;;;;;;12.80;1.63;;;;;;;12.52;100.00;100990.22;4955119;28;20031;-65
2022/10/26 02:27:42;;;;;;;12.02;2.00;;;;;;;12.49;100.00;100988.78;4937741;29;20042;-65
2022/10/26 02:30:09;;;;;;;9.23;1.38;;;;;;;12.47;100.00;100977.34;4954758;29;20051;-65
2022/10/26 02:32:39;;;;;;;13.48;1.73;;;;;;;12.61;100.00;100991.66;4954620;29;20063;-66
2022/10/26 02:35:05;;;;;;;8.05;1.50;;;;;;;12.60;100.00;100996.25;4955068;29;20065;-65
2022/10/26 02:37:33;;;;;;;6.93;1.27;;;;;;;12.64;100.00;100992.06;4937363;29;20051;-66
2022/10/26 02:40:05;;;;;;;10.68;1.45;;;;;;;12.82;100.00;100993.34;4954770;28;20042;-65
2022/10/26 02:42:31;;;;;;;8.75;1.25;;;;;;;12.90;100.00;100993.09;4953945;28;20125;-66
2022/10/26 02:45:05;;;;;;;9.70;1.50;;;;;;;12.94;100.00;100991.63;4954621;28;20058;-64
2022/10/26 02:47:32;;;;;;;8.18;1.23;;;;;;;12.97;100.00;101004.72;4937418;29;20510;-66
2022/10/26 02:50:01;;;;;;;8.02;1.38;;;;;;;12.86;100.00;100987.28;4954636;29;20035;-66
2022/10/26 02:52:35;;;;;;;7.82;1.42;;;;;;;13.02;100.00;101004.13;4954403;29;20046;-64
2022/10/26 02:55:10;;;;;;;10.85;2.25;;;;;;;13.02;100.00;101007.63;4954663;28;20082;-64
2022/10/26 02:57:40;;;;;;;8.48;1.20;;;;;;;12.97;100.00;101006.59;4936942;29;20043;-64
2022/10/26 03:00:11;;;;;;;12.52;1.50;;;;;;;12.97;100.00;100998.50;4954351;29;20041;-64
2022/10/26 03:02:36;;;;;;;8.15;1.60;;;;;;;12.96;100.00;100992.28;4919986;29;20059;-65
2022/10/26 03:05:23;;;;;;;8.40;1.65;;;;;;;12.94;100.00;100994.34;4954502;29;20073;-65
2022/10/26 03:07:48;;;;;;;6.00;1.30;;;;;;;12.91;100.00;100997.47;4937060;29;20027;-64
2022/10/26 03:10:14;;;;;;;11.63;1.42;;;;;;;12.88;100.00;100998.72;4954375;28;20042;-65
2022/10/26 03:12:39;;;;;;;9.73;1.48;;;;;;;12.89;100.00;100996.84;4936923;29;20051;-64
2022/10/26 03:15:05;;;;;;;14.65;1.98;;;;;;;12.81;100.00;100999.75;4954210;29;20039;-64
2022/10/26 03:17:30;;;;;;;10.02;1.33;;;;;;;12.79;100.00;101005.38;4936721;29;20098;-64
2022/10/26 03:19:56;;;;;;;7.78;1.30;;;;;;;12.74;100.00;101002.47;4936917;29;20058;-64
2022/10/26 03:22:22;;;;;;;8.50;1.50;;;;;;;12.72;100.00;101003.72;4953820;29;20059;-64
2022/10/26 03:24:47;;;;;;;12.23;1.42;;;;;;;12.62;100.00;100988.78;4936632;29;20061;-65
2022/10/26 03:27:13;;;;;;;8.13;1.10;;;;;;;12.54;100.00;100991.66;4936666;29;20118;-65
2022/10/26 03:29:39;;;;;;;10.68;1.85;;;;;;;12.68;100.00;101003.28;4953929;29;20064;-65
2022/10/26 03:32:05;;;;;;;10.95;1.25;;;;;;;12.53;100.00;100994.59;4936495;29;20394;-65
2022/10/26 03:34:30;;;;;;;11.07;1.63;;;;;;;12.69;100.00;101026.56;4936004;29;20439;-65
2022/10/26 03:36:56;;;;;;;7.50;1.40;;;;;;;12.70;100.00;101017.41;4936426;29;20023;-65
2022/10/26 03:39:21;;;;;;;6.90;1.23;;;;;;;12.73;100.00;101018.88;4936465;29;20050;-65
2022/10/26 03:41:46;;;;;;;11.98;1.45;;;;;;;12.63;100.00;101011.19;4953670;29;20039;-65
2022/10/26 03:44:12;;;;;;;9.07;1.45;;;;;;;12.71;100.00;101032.56;4936248;29;20395;-65
2022/10/26 03:46:38;;;;;;;6.25;1.20;;;;;;;12.70;100.00;101026.34;4953503;29;20035;-65
2022/10/26 03:49:03;;;;;;;10.77;1.70;;;;;;;12.64;100.00;101019.06;4953549;29;20043;-65
2022/10/26 03:51:29;;;;;;;11.23;1.73;;;;;;;12.72;100.00;101030.72;4953656;29;20047;-65
2022/10/26 03:53:54;;;;;;;14.13;1.60;;;;;;;12.68;100.00;101027.59;4953314;28;20035;-65
2022/10/26 03:56:19;;;;;;;7.55;1.30;;;;;;;12.72;100.00;101033.44;4953341;29;20042;-64
2022/10/26 03:58:44;;;;;;;9.70;1.30;;;;;;;12.74;100.00;101034.03;4953126;29;20117;-65
2022/10/26 04:01:10;;;;;;;10.38;1.58;;;;;;;12.75;100.00;101041.09;4935971;29;20043;-65
2022/10/26 04:03:35;;;;;;;8.90;1.20;;;;;;;12.78;100.00;101044.22;4936143;29;20031;-66
2022/10/26 04:06:02;;;;;;;9.15;1.10;;;;;;;12.82;100.00;101050.03;4953264;29;20039;-66
2022/10/26 04:08:27;;;;;;;11.48;1.50;;;;;;;12.85;100.00;101046.94;4936020;29;20096;-66
2022/10/26 04:10:52;;;;;;;7.10;1.13;;;;;;;12.89;100.00;101053.56;4935998;29;20031;-65
2022/10/26 04:13:21;;;;;;;11.45;1.65;;;;;;;12.86;100.00;101044.00;4953127;29;20554;-64
2022/10/26 04:15:46;;;;;;;8.02;1.52;;;;;;;12.67;100.00;101007.03;4920439;29;20522;-65
2022/10/26 04:18:12;;;;;;;9.30;1.13;;;;;;;12.87;100.00;101040.25;4953017;29;20035;-66
2022/10/26 04:20:40;;;;;;;9.63;1.42;;;;;;;12.67;100.00;101007.84;4952862;28;20418;-63
2022/10/26 04:23:08;;;;;;;9.02;1.40;;;;;;;12.90;100.00;101049.81;4952986;29;20039;-64
2022/10/26 04:25:34;;;;;;;8.13;1.02;;;;;;;12.87;100.00;101053.75;4953323;29;20035;-65
2022/10/26 04:28:01;;;;;;;9.00;1.17;;;;;;;12.86;100.00;101053.97;4953071;29;20137;-64
2022/10/26 04:30:26;;;;;;;6.18;0.93;;;;;;;12.90;100.00;101060.63;4935578;29;20054;-65
2022/10/26 04:32:51;;;;;;;9.60;1.48;;;;;;;12.82;100.00;101050.03;4953048;29;20398;-66
2022/10/26 04:35:17;;;;;;;7.00;0.90;;;;;;;12.85;100.00;101058.56;4935840;29;20043;-65
2022/10/26 04:37:42;;;;;;;5.72;1.08;;;;;;;12.84;100.00;101056.06;4952886;28;20483;-64
2022/10/26 04:40:08;;;;;;;8.75;1.20;;;;;;;12.84;100.00;101062.28;4920046;29;20062;-65
2022/10/26 04:42:44;;;;;;;7.47;0.85;;;;;;;12.87;100.00;101055.63;4935671;29;20042;-65
2022/10/26 04:45:11;;;;;;;3.92;0.70;;;;;;;12.93;100.00;101057.50;4952992;29;20039;-65
2022/10/26 04:47:37;;;;;;;10.23;1.25;;;;;;;12.93;100.00;101060.22;4935836;29;20114;-65
2022/10/26 04:50:02;;;;;;;6.18;1.00;;;;;;;12.93;100.00;101061.03;4935698;29;20114;-65
2022/10/26 04:52:28;;;;;;;7.57;0.80;;;;;;;12.80;100.00;101039.44;4935857;29;20042;-66
2022/10/26 04:54:53;;;;;;;12.20;1.10;;;;;;;12.94;100.00;101062.69;4935912;29;20035;-65
2022/10/26 04:57:18;;;;;;;7.15;1.13;;;;;;;12.93;100.00;101069.13;4952596;29;20114;-66
2022/10/26 04:59:44;;;;;;;6.65;0.98;;;;;;;12.97;100.00;101066.84;4935472;29;20414;-65
2022/10/26 05:02:09;;;;;;;6.85;0.63;;;;;;;12.97;100.00;101063.31;4952692;29;20042;-65
2022/10/26 05:04:34;;;;;;;7.63;1.27;;;;;;;12.98;100.00;101060.44;4935183;29;20067;-65
2022/10/26 05:07:00;;;;;;;5.80;0.93;;;;;;;12.91;100.00;101049.63;4937658;29;20051;-65
2022/10/26 05:09:25;;;;;;;6.13;1.10;;;;;;;12.99;100.00;101061.25;4920375;29;20180;-66
2022/10/26 05:11:51;;;;;;;9.88;1.48;;;;;;;13.00;100.00;101066.44;4931346;29;20050;-67
2022/10/26 05:14:16;;;;;;;8.90;1.00;;;;;;;13.00;100.00;101060.22;4939144;29;20550;-65
2022/10/26 05:16:43;;;;;;;4.85;0.98;;;;;;;12.94;100.00;101042.97;4955972;29;20082;-65
2022/10/26 05:19:09;;;;;;;7.60;1.40;;;;;;;13.02;100.00;101058.97;4923298;29;20049;-65
2022/10/26 05:21:34;;;;;;;11.13;1.20;;;;;;;13.02;100.00;101069.78;4956244;29;20122;-65
2022/10/26 05:24:00;;;;;;;10.18;1.30;;;;;;;13.03;100.00;101065.19;4956211;29;20110;-67
2022/10/26 05:26:25;;;;;;;13.40;1.50;;;;;;;13.03;100.00;101063.31;4939013;29;20122;-64
2022/10/26 05:28:51;;;;;;;11.70;1.33;;;;;;;13.03;100.00;101070.59;4923143;29;20119;-65
2022/10/26 05:31:17;;;;;;;9.20;1.80;;;;;;;13.06;100.00;101068.31;4955959;29;20106;-64
2022/10/26 05:33:42;;;;;;;7.30;1.58;;;;;;;13.08;100.00;101070.81;4955793;28;20043;-64
2022/10/26 05:36:08;;;;;;;9.57;1.80;;;;;;;12.96;100.00;101049.00;4955670;29;20516;-64
2022/10/26 05:38:33;;;;;;;10.35;1.20;;;;;;;13.04;100.00;101078.47;4938506;29;20031;-64
2022/10/26 05:41:00;;;;;;;12.27;1.50;;;;;;;13.07;100.00;101083.47;4919723;29;20122;-64
2022/10/26 05:43:26;;;;;;;10.60;1.60;;;;;;;13.08;100.00;101090.56;4911608;29;20410;-64
2022/10/26 05:45:52;;;;;;;11.88;1.55;;;;;;;13.08;100.00;101089.72;4938426;29;20038;-65
2022/10/26 05:48:18;;;;;;;12.98;1.45;;;;;;;13.08;100.00;101101.38;4955663;29;20490;-65
2022/10/26 05:50:44;;;;;;;9.10;1.23;;;;;;;13.07;100.00;101096.97;4937920;29;20074;-64
2022/10/26 05:53:10;;;;;;;11.85;1.20;;;;;;;13.03;100.00;101106.53;4955627;29;20380;-64
2022/10/26 05:55:36;;;;;;;8.68;1.15;;;;;;;12.99;100.00;101108.00;4955666;28;20046;-64
2022/10/26 05:58:02;;;;;;;9.68;1.17;;;;;;;13.03;100.00;101109.25;4938386;29;20035;-64
2022/10/26 06:00:28;;;;;;;11.52;1.10;;;;;;;13.04;100.00;101108.19;4955524;28;20098;-64
2022/10/26 06:03:21;;;;;;;8.95;1.10;;;;;;;13.05;100.00;101112.59;4922625;29;20023;-64
2022/10/26 06:05:55;;;;;;;7.35;1.02;;;;;;;13.09;100.00;101111.13;4938207;29;20402;-65
2022/10/26 06:08:22;;;;;;;9.98;2.03;;;;;;;13.09;100.00;101108.41;4955302;29;20049;-66
2022/10/26 06:10:53;;;;;;;12.43;1.30;;;;;;;12.99;100.00;101093.66;4934404;29;20055;-67
2022/10/26 06:13:22;;;;;;;7.88;1.20;;;;;;;13.10;100.00;101115.47;4935146;29;20118;-65
2022/10/26 06:15:50;;;;;;;8.23;1.42;;;;;;;13.11;100.00;101116.31;4955059;29;20042;-64
2022/10/26 06:18:40;;;;;;;9.55;1.27;;;;;;;13.09;100.00;101124.63;4953905;28;20042;-64
2022/10/26 06:21:31;;;;;;;8.10;1.10;;;;;;;13.12;100.00;101126.91;4940770;29;20491;-64
2022/10/26 06:24:21;;;;;;;6.38;1.15;;;;;;;13.11;100.00;101130.66;4937809;29;20059;-64
2022/10/26 06:26:55;;;;;;;9.75;1.50;;;;;;;13.11;100.00;101133.38;4937580;29;20491;-65
2022/10/26 06:29:38;;;;;;;8.93;1.30;;;;;;;13.09;100.00;101135.44;4954775;29;20062;-65
2022/10/26 06:32:08;;;;;;;6.68;1.10;;;;;;;13.07;100.00;101142.06;4937682;29;20047;-64
2022/10/26 06:34:43;;;;;;;7.43;1.27;;;;;;;13.04;100.00;101132.50;4954636;29;20524;-64
2022/10/26 06:37:09;;;;;;;8.80;1.13;;;;;;;12.96;100.00;101135.44;4934359;29;20118;-65
2022/10/26 06:39:37;;;;;;;10.45;1.27;;;;;;;12.94;100.00;101142.91;4920409;29;20043;-73
2022/10/26 06:42:03;;;;;;;13.40;1.13;;;;;;;12.93;100.00;101142.06;4936116;29;20130;-65
2022/10/26 06:44:28;;;;;;;13.77;1.77;;;;;;;12.84;100.00;101134.38;4936254;29;20046;-70
2022/10/26 06:47:13;;;;;;;6.88;1.02;;;;;;;12.92;100.00;101156.63;4953119;29;20035;-65
2022/10/26 06:50:20;;;;;;;5.53;0.90;;;;;;;12.91;100.00;101154.97;4927103;29;20031;-65
2022/10/26 06:52:56;;;;;;;6.97;1.05;;;;;;;12.80;100.00;101130.41;4919105;29;20042;-66
2022/10/26 06:55:22;;;;;;;8.65;1.08;;;;;;;12.75;100.00;101125.66;4953525;29;20034;-65
2022/10/26 06:57:48;;;;;;;9.43;1.15;;;;;;;12.96;100.00;101167.00;4953679;29;20390;-64
2022/10/26 07:00:19;;;;;;;10.65;1.75;;;;;;;12.92;100.00;101155.78;4953504;29;20376;-65
2022/10/26 07:02:45;;;;;;;10.07;1.13;;;;;;;12.94;100.00;101168.03;4952581;29;20272;-67
2022/10/26 07:05:11;;;;;;;9.15;1.17;;;;;;;12.97;100.00;101168.66;4953141;29;20042;-67
2022/10/26 07:07:41;;;;;;;10.65;1.33;;;;;;;12.90;100.00;101153.28;4953561;29;20027;-66
2022/10/26 07:10:12;;;;;;;11.68;1.35;;;;;;;12.99;100.00;101166.59;4953234;29;20246;-67
2022/10/26 07:12:38;;;;;;;9.77;1.73;;;;;;;12.98;100.00;101171.19;4952377;29;20109;-69
2022/10/26 07:15:04;;;;;;;14.15;1.70;;;;;;;12.99;100.00;101189.03;4949640;29;20035;-68
2022/10/26 07:17:30;;;;;;;9.70;1.20;;;;;;;13.00;100.00;101190.69;4935286;29;20027;-64
2022/10/26 07:19:56;;;;;;;12.75;1.35;;;;;;;13.01;100.00;101194.22;4953295;29;20043;-66
2022/10/26 07:22:21;;;;;;;8.50;0.90;;;;;;;12.96;100.00;101192.16;4934379;29;20454;-65
2022/10/26 07:24:49;;;;;;;9.10;0.90;;;;;;;12.98;100.00;101203.59;4952618;29;20035;-68
2022/10/26 07:27:15;;;;;;;7.28;1.02;;;;;;;12.96;100.00;101197.56;4935431;29;20042;-66
2022/10/26 07:29:40;;;;;;;7.28;0.88;;;;;;;13.00;100.00;101206.91;4948621;28;20055;-66
2022/10/26 07:32:06;;;;;;;8.35;1.50;;;;;;;13.00;100.00;101200.69;4952796;29;20039;-67
2022/10/26 07:34:32;;;;;;;7.38;1.05;;;;;;;13.00;100.00;101203.38;4935375;29;20078;-66
2022/10/26 07:37:00;;;;;;;7.72;0.85;;;;;;;13.02;100.00;101201.31;4935433;29;20063;-71
2022/10/26 07:39:26;;;;;;;7.40;0.98;;;;;;;13.04;100.00;101202.75;4952255;29;20094;-65
2022/10/26 07:41:52;;;;;;;9.25;1.08;;;;;;;13.05;100.00;101198.19;4953237;29;20046;-65
2022/10/26 07:44:18;;;;;;;7.97;1.17;;;;;;;13.05;100.00;101198.19;4951814;29;20045;-71
2022/10/26 07:46:44;;;;;;;4.88;0.90;;;;;;;13.05;100.00;101207.13;4934711;29;20035;-65
2022/10/26 07:49:09;;;;;;;8.68;1.13;;;;;;;13.07;100.00;101213.16;4934903;28;20409;-65
2022/10/26 07:51:35;;;;;;;5.63;0.80;;;;;;;13.12;100.00;101226.06;4919232;29;20053;-66
2022/10/26 07:54:00;;;;;;;8.18;1.02;;;;;;;13.10;100.00;101223.53;4952289;29;20035;-67
2022/10/26 07:56:26;;;;;;;9.18;0.90;;;;;;;12.98;100.00;101197.34;4952511;28;20078;-67
2022/10/26 07:58:52;;;;;;;9.68;1.15;;;;;;;13.12;100.00;101236.88;4918207;29;20122;-66
2022/10/26 08:01:18;;;;;;;9.30;1.23;;;;;;;13.14;100.00;101229.38;4945306;29;20166;-69
2022/10/26 08:03:43;;;;;;;10.27;1.02;;;;;;;13.14;100.00;101234.78;4934745;29;20114;-66
2022/10/26 08:06:09;;;;;;;5.72;0.98;;;;;;;13.15;100.00;101233.75;4937367;29;20039;-65
2022/10/26 08:08:35;;;;;;;8.48;1.08;;;;;;;13.13;100.00;101233.94;4951513;28;20039;-66
2022/10/26 08:11:01;;;;;;;3.80;0.77;;;;;;;13.15;100.00;101242.69;4918881;29;20039;-65
2022/10/26 08:13:27;;;;;;;5.47;0.82;;;;;;;13.20;100.00;101238.53;4952422;28;20035;-70
2022/10/26 08:16:00;;;;;;;5.38;1.00;;;;;;;13.20;100.00;101252.03;4952322;28;20031;-65
2022/10/26 08:18:25;;;;;;;7.22;0.80;;;;;;;13.22;100.00;101258.09;4934374;29;20038;-65
2022/10/26 08:20:51;;;;;;;3.90;0.55;;;;;;;13.24;100.00;101253.28;4934319;29;20042;-65
2022/10/26 08:23:17;;;;;;;5.13;0.85;;;;;;;13.27;100.00;101252.91;4952323;29;20031;-65
2022/10/26 08:25:42;;;;;;;7.07;1.00;;;;;;;13.26;100.00;101254.78;4935114;29;20130;-67
2022/10/26 08:28:10;;;;;;;7.80;1.13;;;;;;;13.28;100.00;101254.59;4917669;29;20039;-70
2022/10/26 08:30:35;;;;;;;6.70;0.90;;;;;;;13.26;100.00;101248.56;4920689;29;20503;-67
2022/10/26 08:33:05;;;;;;;8.15;0.90;;;;;;;13.29;100.00;101264.34;4931659;29;20078;-67
2022/10/26 08:35:32;;;;;;;5.95;1.02;;;;;;;13.29;100.00;101264.34;4916076;29;20039;-65
2022/10/26 08:37:57;;;;;;;8.52;0.88;;;;;;;13.03;100.00;101233.50;4932797;29;20063;-67
2022/10/26 08:40:29;;;;;;;6.72;1.17;;;;;;;13.30;100.00;101274.13;4932436;29;20067;-65
2022/10/26 08:43:08;;;;;;;5.57;0.93;;;;;;;13.27;100.00;101271.81;4936083;29;20032;-67
2022/10/26 08:45:40;;;;;;;9.95;0.93;;;;;;;13.23;100.00;101271.38;4909831;29;20143;-65
2022/10/26 08:48:14;;;;;;;8.05;1.05;;;;;;;13.27;100.00;101283.47;4936311;29;20039;-68
2022/10/26 08:51:06;;;;;;;4.32;0.90;;;;;;;13.32;100.00;101278.28;4918644;29;20043;-67
2022/10/26 08:53:35;;;;;;;5.95;1.00;;;;;;;13.36;100.00;101281.41;4922977;29;20046;-65
2022/10/26 08:56:10;;;;;;;7.45;1.13;;;;;;;13.40;100.00;101282.66;4919232;29;20479;-65
2022/10/26 08:59:05;;;;;;;7.50;1.10;;;;;;;13.45;100.00;101276.66;4937081;29;20035;-66
2022/10/26 09:01:32;;;;;;;9.90;1.17;;;;;;;13.45;100.00;101280.19;4862620;29;20389;-67
2022/10/26 09:04:00;;;;;;;6.65;1.30;;;;;;;13.47;100.00;101269.97;4876320;29;20045;-65
2022/10/26 09:06:51;;;;;;;6.53;0.85;;;;;;;13.57;100.00;101283.91;4858491;29;20045;-65
2022/10/26 09:09:54;;;;;;;7.05;0.95;;;;;;;13.56;100.00;101284.97;4848909;29;20037;-66
2022/10/26 09:12:49;;;;;;;8.63;1.10;;;;;;;13.56;100.00;101287.66;4843975;29;20631;-65
2022/10/26 09:15:36;;;;;;;4.40;0.80;;;;;;;13.56;100.00;101279.56;4846630;29;20625;-65
2022/10/26 09:18:04;;;;;;;7.70;1.23;;;;;;;13.57;100.00;101286.63;4859302;29;20209;-66
2022/10/26 09:20:57;;;;;;;9.48;0.90;;;;;;;13.57;100.00;101292.03;4836266;29;20034;-66
2022/10/26 09:23:44;;;;;;;8.55;0.75;;;;;;;13.65;100.00;101293.72;4848428;29;20455;-66
2022/10/26 09:26:17;;;;;;;6.15;0.85;;;;;;;13.68;100.00;101287.91;4833603;29;20069;-66
2022/10/26 09:28:46;;;;;;;5.80;1.38;;;;;;;13.54;100.00;101257.31;4854199;29;20521;-65
2022/10/26 09:31:15;;;;;;;5.55;0.93;;;;;;;13.73;100.00;101288.09;4853982;29;20437;-66
2022/10/26 09:33:41;;;;;;;5.70;0.90;;;;;;;13.79;100.00;101292.66;4911662;29;20147;-68
2022/10/26 09:36:12;;;;;;;7.00;1.10;;;;;;;13.87;100.00;101294.31;4928002;29;20283;-66
2022/10/26 09:38:56;;;;;;;6.57;1.05;;;;;;;13.92;100.00;101291.84;4923503;29;20080;-65
2022/10/26 09:41:41;;;;;;;5.80;0.98;;;;;;;13.94;100.00;101288.91;4934522;29;20063;-66
2022/10/26 09:44:24;;;;;;;4.90;0.80;;;;;;;13.92;100.00;101302.66;4936546;29;20039;-65
2022/10/26 09:47:20;;;;;;;5.03;0.80;;;;;;;13.85;100.00;101307.25;4936978;29;20030;-65
2022/10/26 09:49:48;;;;;;;;;;;;;;;13.90;100.00;101310.13;4937452;29;20039;-66
2022/10/26 09:52:15;;;;;;;3.72;0.68;;;;;;;13.82;100.00;101288.72;4936398;29;19914;-66
2022/10/26 09:54:40;;;;;;;3.00;0.73;;;;;;;13.96;100.00;101308.47;4936566;29;20035;-66
2022/10/26 09:57:07;;;;;;;5.00;1.02;;;;;;;14.02;100.00;101319.28;4935458;29;20136;-65
2022/10/26 09:59:37;;;;;;;5.93;0.80;;;;;;;14.01;100.00;101316.81;4936750;29;20047;-65
2022/10/26 10:02:31;;;;;;;6.40;0.77;;;;;;;13.98;100.00;101328.06;4936514;29;20040;-66
2022/10/26 10:04:57;;;;;;;8.98;1.00;;;;;;;13.92;100.00;101318.88;4935134;29;20020;-65
2022/10/26 10:07:22;;;;;;;4.75;1.02;;;;;;;13.75;100.00;101296.00;4916321;29;20115;-65
2022/10/26 10:10:14;;;;;;;8.90;0.98;;;;;;;13.89;100.00;101330.13;4925840;29;20047;-65
2022/10/26 10:12:39;;;;;;;4.63;1.00;;;;;;;13.80;100.00;101318.66;4935948;29;20091;-65
2022/10/26 10:15:20;;;;;;;8.38;1.05;;;;;;;13.86;100.00;101334.06;4936401;29;20043;-65
2022/10/26 10:17:48;;;;;;;6.50;1.20;;;;;;;13.90;100.00;101336.38;4934851;29;20038;-65
2022/10/26 10:20:18;;;;;;;8.15;1.75;;;;;;;13.94;100.00;101338.47;4934810;29;20040;-65
2022/10/26 10:22:55;;;;;;;6.38;1.20;;;;;;;13.85;100.00;101326.19;4936036;29;20090;-65
2022/10/26 10:25:56;;;;;;;7.05;1.10;;;;;;;13.95;100.00;101347.41;4936063;29;20514;-65
2022/10/26 10:28:24;;;;;;;6.25;0.90;;;;;;;13.92;100.00;101354.06;4934590;29;20522;-65
2022/10/26 10:31:01;;;;;;;9.75;1.40;;;;;;;13.90;100.00;101347.19;4948913;29;20039;-65
2022/10/26 10:33:37;;;;;;;10.77;1.50;;;;;;;13.87;100.00;101353.84;4954876;28;20046;-66
2022/10/26 10:36:08;;;;;;;10.00;1.42;;;;;;;13.84;100.00;101355.09;4954837;29;20034;-65
2022/10/26 10:38:39;;;;;;;6.07;1.20;;;;;;;13.80;100.00;101344.88;4954890;29;20041;-65
2022/10/26 10:41:15;;;;;;;5.10;1.23;;;;;;;13.70;100.00;101330.94;4937832;29;20111;-66
2022/10/26 10:43:54;;;;;;;7.35;1.27;;;;;;;13.91;100.00;101352.41;4954513;29;20042;-66
2022/10/26 10:46:24;;;;;;;6.22;1.00;;;;;;;13.93;100.00;101346.78;4954709;29;20086;-65
2022/10/26 10:49:01;;;;;;;7.05;1.05;;;;;;;13.84;100.00;101329.91;4954670;29;20085;-66
2022/10/26 10:51:26;;;;;;;6.80;1.30;;;;;;;13.95;100.00;101350.94;4937671;29;20118;-66
2022/10/26 10:53:55;;;;;;;3.67;1.23;;;;;;;14.01;100.00;101360.09;4954616;29;20114;-66
2022/10/26 10:56:44;;;;;;;5.68;1.27;;;;;;;14.04;100.00;101363.22;4954427;28;20106;-66
2022/10/26 10:59:44;;;;;;;7.78;1.23;;;;;;;14.04;100.00;101362.41;4922934;29;20509;-66
2022/10/26 11:02:12;;;;;;;5.50;1.00;;;;;;;14.00;100.00;101371.94;4954664;29;20035;-67
2022/10/26 11:04:38;;;;;;;3.45;0.70;;;;;;;14.03;100.00;101368.84;4936362;29;20038;-65
2022/10/26 11:07:06;;;;;;;4.80;1.15;;;;;;;14.04;100.00;101365.94;4936285;29;20027;-65
2022/10/26 11:09:36;;;;;;;6.60;0.90;;;;;;;14.02;100.00;101362.59;4936426;29;20118;-65
2022/10/26 11:12:12;;;;;;;6.75;0.75;;;;;;;14.02;100.00;101365.28;4954105;29;20407;-65
2022/10/26 11:14:42;;;;;;;4.35;0.90;;;;;;;14.06;100.00;101363.00;4936207;29;20077;-64
2022/10/26 11:17:14;;;;;;;3.28;0.90;;;;;;;14.09;100.00;101368.00;4954782;29;20071;-66
2022/10/26 11:19:56;;;;;;;6.47;0.77;;;;;;;14.15;100.00;101363.63;4937032;29;20035;-65
2022/10/26 11:22:35;;;;;;;5.80;1.33;;;;;;;14.08;100.00;101352.81;4954124;28;20042;-64
2022/10/26 11:25:09;;;;;;;11.18;6.68;;;;;;;14.25;100.00;101383.00;4938302;29;20386;-65
2022/10/26 11:28:03;;;;;;;23.45;13.45;;;;;;;14.36;100.00;101376.94;4936543;28;20023;-65
2022/10/26 11:30:32;;;;;;;11.05;5.32;;;;;;;14.26;100.00;101368.41;4953760;29;20466;-66
2022/10/26 11:33:32;;;;;;;9.88;6.00;;;;;;;14.39;100.00;101381.09;4953848;28;20027;-66